createdAt,value
2022-12-06T00:22:15.470Z,4.70
2022-12-06T00:24:51.168Z,4.70
2022-12-06T00:27:17.878Z,4.70
2022-12-06T00:29:56.886Z,4.70
2022-12-06T00:32:24.230Z,4.70
2022-12-06T00:35:03.393Z,4.70
2022-12-06T00:37:30.606Z,4.70
2022-12-06T00:40:10.337Z,4.70
2022-12-06T00:42:37.597Z,4.70
2022-12-06T00:45:13.282Z,4.80
2022-12-06T01:06:43.786Z,4.90
2022-12-06T01:28:22.464Z,5.00
2022-12-06T01:31:07.068Z,4.90
2022-12-06T02:00:53.467Z,4.70
2022-12-06T02:03:23.573Z,4.70
2022-12-06T02:09:15.225Z,4.60
2022-12-06T02:11:42.027Z,4.50
2022-12-06T02:17:03.183Z,4.50
2022-12-06T02:19:48.735Z,4.50
2022-12-06T02:37:46.807Z,4.50
2022-12-06T02:40:41.699Z,4.50
2022-12-06T02:43:13.994Z,4.50
2022-12-06T02:45:54.552Z,4.60
2022-12-06T02:48:23.197Z,4.60
2022-12-06T02:51:09.783Z,4.60
2022-12-06T02:56:42.273Z,4.60
2022-12-06T02:59:25.325Z,4.70
2022-12-06T03:02:01.312Z,4.70
2022-12-06T03:08:28.025Z,4.70
2022-12-06T03:11:06.774Z,4.60
2022-12-06T03:17:21.151Z,4.60
2022-12-06T03:19:57.607Z,4.60
2022-12-06T03:22:44.957Z,4.70
2022-12-06T03:25:35.372Z,4.70
2022-12-06T03:28:10.935Z,4.70
2022-12-06T03:30:38.772Z,4.70
2022-12-06T03:33:07.476Z,4.70
2022-12-06T03:35:35.762Z,4.60
2022-12-06T03:38:21.607Z,4.60
2022-12-06T03:41:12.417Z,4.60
2022-12-06T03:43:58.244Z,4.60
2022-12-06T03:49:42.893Z,4.60
2022-12-06T03:52:25.160Z,4.70
2022-12-06T03:55:04.452Z,4.70
2022-12-06T04:00:13.271Z,4.70
2022-12-06T04:02:52.730Z,4.70
2022-12-06T04:11:14.008Z,4.70
2022-12-06T04:13:46.343Z,4.70
2022-12-06T04:16:30.844Z,4.70
2022-12-06T04:21:38.547Z,4.60
2022-12-06T04:24:16.319Z,4.60
2022-12-06T04:26:54.907Z,4.60
2022-12-06T04:29:37.223Z,4.50
2022-12-06T04:32:21.407Z,4.50
2022-12-06T04:35:04.055Z,4.40
2022-12-06T04:37:46.051Z,4.40
2022-12-06T04:40:30.182Z,4.40
2022-12-06T04:46:04.205Z,4.40
2022-12-06T04:48:46.283Z,4.40
2022-12-06T04:51:13.337Z,4.40
2022-12-06T04:53:49.428Z,4.40
2022-12-06T04:56:36.716Z,4.40
2022-12-06T04:59:20.166Z,4.40
2022-12-06T05:01:49.033Z,4.30
2022-12-06T05:12:21.269Z,4.40
2022-12-06T05:15:00.229Z,4.30
2022-12-06T05:17:39.132Z,4.30
2022-12-06T05:22:47.282Z,4.30
2022-12-06T05:41:35.671Z,4.30
2022-12-06T05:46:46.410Z,4.30
2022-12-06T05:49:13.162Z,4.30
2022-12-06T05:55:11.702Z,4.20
2022-12-06T05:57:59.038Z,4.10
2022-12-06T06:00:26.281Z,4.10
2022-12-06T06:08:40.717Z,4.00
2022-12-06T06:11:07.803Z,4.00
2022-12-06T06:13:34.585Z,3.90
2022-12-06T06:16:13.684Z,3.90
2022-12-06T06:18:40.534Z,3.90
2022-12-06T06:21:07.393Z,3.90
2022-12-06T06:23:49.281Z,3.90
2022-12-06T06:31:40.598Z,3.90
2022-12-06T06:34:19.680Z,3.90
2022-12-06T06:36:46.449Z,3.90
2022-12-06T06:39:13.486Z,3.90
2022-12-06T06:41:40.457Z,3.90
2022-12-06T06:44:18.060Z,3.90
2022-12-06T06:46:44.855Z,3.80
2022-12-06T06:49:12.217Z,3.70
2022-12-06T06:54:20.339Z,3.60
2022-12-06T06:57:02.436Z,3.50
2022-12-06T06:59:29.174Z,3.50
2022-12-06T07:02:12.425Z,3.40
2022-12-06T07:04:39.253Z,3.40
2022-12-06T07:07:21.459Z,3.30
2022-12-06T07:09:48.583Z,3.20
2022-12-06T07:12:30.302Z,3.20
2022-12-06T07:14:57.545Z,3.10
2022-12-06T07:17:37.125Z,3.00
2022-12-06T07:20:04.770Z,3.00
2022-12-06T07:22:31.486Z,2.90
2022-12-06T07:25:10.360Z,2.90
2022-12-06T07:27:37.299Z,2.80
2022-12-06T07:30:17.130Z,2.80
2022-12-06T07:32:45.012Z,2.80
2022-12-06T07:35:11.714Z,2.70
2022-12-06T07:37:53.563Z,2.70
2022-12-06T07:40:30.718Z,2.60
2022-12-06T07:43:10.319Z,2.60
2022-12-06T07:45:37.521Z,2.50
2022-12-06T07:48:19.471Z,2.50
2022-12-06T07:50:46.351Z,2.50
2022-12-06T07:53:35.708Z,2.50
2022-12-06T07:59:19.988Z,2.40
2022-12-06T08:01:47.014Z,2.40
2022-12-06T08:04:26.169Z,2.40
2022-12-06T08:06:52.830Z,2.30
2022-12-06T08:09:28.730Z,2.30
2022-12-06T08:12:17.664Z,2.20
2022-12-06T08:14:59.928Z,2.30
2022-12-06T08:17:33.015Z,2.20
2022-12-06T08:22:54.968Z,2.20
2022-12-06T08:25:21.650Z,2.20
2022-12-06T08:27:53.554Z,2.20
2022-12-06T08:30:39.239Z,2.30
2022-12-06T08:33:15.023Z,2.30
2022-12-06T08:35:41.731Z,2.30
2022-12-06T08:38:09.637Z,2.40
2022-12-06T08:41:02.033Z,2.50
2022-12-06T08:43:28.849Z,2.60
2022-12-06T08:45:55.512Z,2.60
2022-12-06T08:48:25.376Z,2.70
2022-12-06T08:51:07.452Z,2.70
2022-12-06T08:53:46.552Z,2.70
2022-12-06T08:58:54.883Z,2.70
2022-12-06T09:01:40.502Z,2.70
2022-12-06T09:04:09.106Z,2.70
2022-12-06T09:06:45.292Z,2.80
2022-12-06T09:09:14.176Z,2.80
2022-12-06T09:11:45.194Z,2.90
2022-12-06T09:14:29.991Z,2.90
2022-12-06T09:16:56.619Z,2.90
2022-12-06T09:19:36.670Z,3.00
2022-12-06T09:22:12.608Z,3.00
2022-12-06T09:24:39.633Z,3.10
2022-12-06T09:27:12.272Z,3.20
2022-12-06T09:29:51.143Z,3.20
2022-12-06T09:32:23.270Z,3.40
2022-12-06T09:35:01.977Z,3.60
2022-12-06T09:37:28.910Z,3.80
2022-12-06T09:40:20.598Z,4.00
2022-12-06T09:43:38.171Z,4.10
2022-12-06T09:49:13.331Z,4.30
2022-12-06T09:51:58.482Z,4.40
2022-12-06T09:58:08.819Z,4.30
2022-12-06T10:01:26.569Z,4.30
2022-12-06T10:04:16.491Z,4.40
2022-12-06T10:10:47.708Z,4.70
2022-12-06T10:14:04.679Z,4.70
2022-12-06T10:16:53.309Z,4.80
2022-12-06T10:19:38.711Z,4.80
2022-12-06T10:22:35.061Z,4.90
2022-12-06T10:25:10.986Z,4.90
2022-12-06T10:27:57.643Z,5.10
2022-12-06T10:30:44.662Z,5.20
2022-12-06T10:33:33.345Z,5.30
2022-12-06T10:36:19.070Z,5.30
2022-12-06T10:39:09.821Z,5.40
2022-12-06T10:42:16.459Z,5.50
2022-12-06T10:45:17.405Z,5.50
2022-12-06T10:47:56.701Z,5.80
2022-12-06T10:50:35.835Z,6.00
2022-12-06T10:53:28.657Z,6.10
2022-12-06T10:56:22.645Z,6.10
2022-12-06T11:09:27.835Z,6.20
2022-12-06T11:12:13.010Z,6.30
2022-12-06T11:14:54.550Z,6.30
2022-12-06T11:17:39.444Z,6.40
2022-12-06T11:20:28.062Z,6.40
2022-12-06T11:23:30.772Z,6.40
2022-12-06T11:26:26.599Z,6.50
2022-12-06T11:29:05.925Z,6.50
2022-12-06T11:31:55.533Z,6.50
2022-12-06T11:34:38.171Z,6.50
2022-12-06T11:37:24.922Z,6.70
2022-12-06T11:40:37.486Z,6.90
2022-12-06T11:46:29.094Z,6.90
2022-12-06T11:49:35.147Z,6.90
2022-12-06T11:52:14.932Z,7.00
2022-12-06T11:55:00.003Z,7.00
2022-12-06T11:57:42.691Z,7.00
2022-12-06T12:00:16.655Z,7.10
2022-12-06T12:02:57.453Z,7.20
2022-12-06T12:05:27.952Z,7.20
2022-12-06T12:08:06.579Z,7.30
2022-12-06T12:11:00.669Z,7.30
2022-12-06T12:13:50.783Z,7.30
2022-12-06T12:16:33.589Z,7.30
2022-12-06T12:19:45.439Z,7.30
2022-12-06T12:22:40.912Z,7.30
2022-12-06T12:25:41.157Z,7.20
2022-12-06T12:28:32.150Z,7.20
2022-12-06T12:31:23.331Z,7.20
2022-12-06T12:34:15.716Z,7.20
2022-12-06T12:37:05.155Z,7.20
2022-12-06T12:39:48.177Z,7.20
2022-12-06T12:42:34.038Z,7.10
2022-12-06T12:45:19.184Z,7.10
2022-12-06T12:51:36.158Z,7.20
2022-12-06T12:54:29.429Z,7.20
2022-12-06T12:56:58.470Z,7.20
2022-12-06T12:59:39.948Z,7.20
2022-12-06T13:02:20.628Z,7.20
2022-12-06T13:08:44.138Z,7.20
2022-12-06T13:11:20.153Z,7.20
2022-12-06T13:13:52.044Z,7.20
2022-12-06T13:16:30.929Z,7.20
2022-12-06T13:19:15.703Z,7.20
2022-12-06T13:21:57.608Z,7.30
2022-12-06T13:24:46.740Z,7.30
2022-12-06T13:27:28.051Z,7.30
2022-12-06T13:30:40.775Z,7.30
2022-12-06T13:33:35.068Z,7.30
2022-12-06T13:36:11.634Z,7.30
2022-12-06T13:38:42.501Z,7.30
2022-12-06T13:41:43.428Z,7.30
2022-12-06T13:44:52.364Z,7.30
2022-12-06T13:47:34.646Z,7.30
2022-12-06T13:56:09.095Z,7.10
2022-12-06T14:16:29.112Z,6.80
2022-12-06T14:19:20.404Z,6.80
2022-12-06T14:21:59.554Z,6.80
2022-12-06T14:24:40.514Z,6.80
2022-12-06T14:27:14.617Z,6.80
2022-12-06T14:29:43.267Z,6.80
2022-12-06T14:32:10.855Z,6.80
2022-12-06T14:34:37.778Z,6.70
2022-12-06T14:37:21.644Z,6.70
2022-12-06T14:39:52.741Z,6.60
2022-12-06T14:42:20.120Z,6.60
2022-12-06T14:44:56.174Z,6.60
2022-12-06T14:47:27.846Z,6.50
2022-12-06T14:49:58.782Z,6.50
2022-12-06T14:52:28.462Z,6.50
2022-12-06T14:55:19.515Z,6.50
2022-12-06T14:57:54.764Z,6.40
2022-12-06T15:00:47.498Z,6.40
2022-12-06T15:03:14.290Z,6.40
2022-12-06T15:05:45.869Z,6.40
2022-12-06T15:08:27.632Z,6.40
2022-12-06T15:11:13.331Z,6.30
2022-12-06T15:13:40.142Z,6.30
2022-12-06T15:16:09.777Z,6.30
2022-12-06T15:18:58.199Z,6.30
2022-12-06T15:21:24.971Z,6.30
2022-12-06T15:23:52.417Z,6.30
2022-12-06T15:26:23.238Z,6.30
2022-12-06T15:28:51.020Z,6.20
2022-12-06T15:31:24.746Z,6.20
2022-12-06T15:33:51.573Z,6.20
2022-12-06T15:36:28.160Z,6.20
2022-12-06T15:38:54.980Z,6.10
2022-12-06T15:41:24.919Z,6.10
2022-12-06T15:43:52.790Z,6.10
2022-12-06T15:46:25.527Z,6.10
2022-12-06T15:48:53.745Z,6.10
2022-12-06T15:51:22.961Z,6.10
2022-12-06T15:53:49.961Z,6.10
2022-12-06T15:56:20.158Z,6.10
2022-12-06T15:58:47.282Z,6.10
2022-12-06T16:01:31.273Z,6.10
2022-12-06T16:03:58.147Z,6.10
2022-12-06T16:06:27.082Z,6.10
2022-12-06T16:08:54.127Z,6.10
2022-12-06T16:11:23.118Z,6.10
2022-12-06T16:13:50.178Z,6.10
2022-12-06T16:16:18.742Z,6.10
2022-12-06T16:18:46.793Z,6.10
2022-12-06T16:21:28.624Z,6.10
2022-12-06T16:24:14.106Z,6.10
2022-12-06T16:26:42.871Z,6.00
2022-12-06T16:29:14.809Z,6.00
2022-12-06T16:31:41.674Z,6.00
2022-12-06T16:34:09.023Z,6.00
2022-12-06T16:40:02.149Z,5.90
2022-12-06T16:42:28.939Z,5.90
2022-12-06T16:44:56.013Z,5.80
2022-12-06T16:49:49.480Z,5.80
2022-12-06T16:52:16.913Z,5.80
2022-12-06T16:54:43.585Z,5.80
2022-12-06T16:57:14.199Z,5.80
2022-12-06T16:59:40.847Z,5.70
2022-12-06T17:02:18.914Z,5.70
2022-12-06T17:04:45.602Z,5.70
2022-12-06T17:07:12.262Z,5.70
2022-12-06T17:09:38.958Z,5.70
2022-12-06T17:12:05.862Z,5.70
2022-12-06T17:14:32.720Z,5.70
2022-12-06T17:17:02.112Z,5.70
2022-12-06T17:19:28.766Z,5.60
2022-12-06T17:21:55.624Z,5.60
2022-12-06T17:24:25.536Z,5.60
2022-12-06T17:26:53.995Z,5.60
2022-12-06T17:29:21.692Z,5.60
2022-12-06T17:31:48.421Z,5.60
2022-12-06T17:34:16.388Z,5.60
2022-12-06T17:36:43.482Z,5.50
2022-12-06T17:39:13.012Z,5.50
2022-12-06T17:41:39.785Z,5.50
2022-12-06T17:44:07.446Z,5.50
2022-12-06T17:46:34.780Z,5.40
2022-12-06T17:49:02.053Z,5.40
2022-12-06T17:51:29.243Z,5.40
2022-12-06T17:54:07.577Z,5.40
2022-12-06T17:56:41.079Z,5.40
2022-12-06T17:59:11.216Z,5.30
2022-12-06T18:02:06.612Z,5.20
2022-12-06T18:04:29.065Z,5.20
2022-12-06T18:06:56.518Z,5.20
2022-12-06T18:09:23.910Z,5.10
2022-12-06T18:11:50.748Z,5.10
2022-12-06T18:14:17.670Z,5.00
2022-12-06T18:16:45.461Z,5.00
2022-12-06T18:19:18.932Z,5.00
2022-12-06T18:21:46.214Z,5.00
2022-12-06T18:24:23.787Z,5.10
2022-12-06T18:26:52.308Z,5.10
2022-12-06T18:29:22.356Z,5.10
2022-12-06T18:31:51.078Z,5.10
2022-12-06T18:34:18.691Z,5.10
2022-12-06T18:36:45.516Z,5.20
2022-12-06T18:39:20.252Z,5.20
2022-12-06T18:41:46.970Z,5.20
2022-12-06T18:44:13.726Z,5.20
2022-12-06T18:46:41.176Z,5.20
2022-12-06T18:49:09.567Z,5.20
2022-12-06T18:51:36.401Z,5.20
2022-12-06T18:54:04.008Z,5.20
2022-12-06T18:56:31.860Z,5.20
2022-12-06T18:59:01.746Z,5.20
2022-12-06T19:01:31.637Z,5.10
2022-12-06T19:03:59.786Z,5.10
2022-12-06T19:06:29.502Z,5.00
2022-12-06T19:09:01.658Z,5.00
2022-12-06T19:11:28.659Z,5.00
2022-12-06T19:13:59.631Z,4.90
2022-12-06T19:16:45.994Z,5.00
2022-12-06T19:19:16.873Z,4.90
2022-12-06T19:21:44.982Z,4.90
2022-12-06T19:24:14.201Z,5.00
2022-12-06T19:26:40.953Z,5.00
2022-12-06T19:29:07.655Z,5.00
2022-12-06T19:31:38.355Z,5.00
2022-12-06T19:34:05.114Z,5.00
2022-12-06T19:36:32.059Z,5.10
2022-12-06T19:39:04.611Z,5.10
2022-12-06T19:41:31.988Z,5.10
2022-12-06T19:43:59.280Z,5.10
2022-12-06T19:46:28.653Z,5.10
2022-12-06T19:49:04.245Z,5.10
2022-12-06T19:51:43.538Z,5.10
2022-12-06T19:54:23.020Z,5.00
2022-12-06T19:56:51.339Z,5.00
2022-12-06T19:59:18.126Z,4.90
2022-12-06T20:01:48.142Z,4.90
2022-12-06T20:04:20.276Z,4.80
2022-12-06T20:06:54.999Z,4.80
2022-12-06T20:09:23.297Z,4.80
2022-12-06T20:11:50.593Z,4.70
2022-12-06T20:14:18.461Z,4.70
2022-12-06T20:16:45.539Z,4.70
2022-12-06T20:19:13.884Z,4.70
2022-12-06T20:21:40.517Z,4.70
2022-12-06T20:24:07.597Z,4.70
2022-12-06T20:26:34.476Z,4.70
2022-12-06T20:29:01.257Z,4.70
2022-12-06T20:31:30.126Z,4.70
2022-12-06T20:33:59.093Z,4.70
2022-12-06T20:36:27.410Z,4.70
2022-12-06T20:38:55.539Z,4.70
2022-12-06T20:41:24.855Z,4.80
2022-12-06T20:43:52.435Z,4.80
2022-12-06T20:46:20.858Z,4.80
2022-12-06T20:48:47.579Z,4.80
2022-12-06T20:51:16.658Z,4.90
2022-12-06T20:53:43.898Z,4.80
2022-12-06T20:56:12.473Z,4.90
2022-12-06T20:58:39.529Z,4.90
2022-12-06T21:01:06.322Z,4.90
2022-12-06T21:03:33.119Z,4.90
2022-12-06T21:06:04.595Z,4.90
2022-12-06T21:08:36.273Z,4.90
2022-12-06T21:13:55.291Z,4.90
2022-12-06T21:16:27.736Z,4.90
2022-12-06T21:18:57.632Z,4.90
2022-12-06T21:21:31.231Z,4.90
2022-12-06T21:24:02.180Z,4.90
2022-12-06T21:26:30.869Z,4.90
2022-12-06T21:28:58.353Z,4.80
2022-12-06T21:31:37.335Z,4.80
2022-12-06T21:34:04.307Z,4.80
2022-12-06T21:36:30.967Z,4.70
2022-12-06T21:38:58.950Z,4.70
2022-12-06T21:41:26.444Z,4.70
2022-12-06T21:43:53.505Z,4.70
2022-12-06T21:46:24.656Z,4.60
2022-12-06T21:48:58.955Z,4.60
2022-12-06T21:51:29.079Z,4.60
2022-12-06T21:53:56.754Z,4.60
2022-12-06T21:59:12.551Z,4.50
2022-12-06T22:01:51.013Z,4.50
2022-12-06T22:04:30.338Z,4.40
2022-12-06T22:20:28.774Z,4.10
2022-12-06T22:39:05.811Z,3.90
2022-12-06T22:41:57.104Z,3.90
2022-12-06T23:00:16.694Z,3.90
2022-12-06T23:10:14.805Z,3.90
2022-12-06T23:12:41.539Z,3.90
2022-12-06T23:15:16.628Z,3.80
2022-12-06T23:24:18.311Z,3.60
2022-12-06T23:26:57.970Z,3.50
2022-12-06T23:36:29.969Z,3.40
2022-12-06T23:39:08.605Z,3.40
2022-12-06T23:41:44.809Z,3.30
2022-12-06T23:50:23.353Z,3.30
